sensor_id;sensor_type;location;lat;lon;timestamp;pressure;altitude;pressure_sealevel;temperature;humidity
46081;BME280;31821;51.880;-0.518;2022-11-20T00:00:54;100220.41;;;9.33;60.16
46081;BME280;31821;51.880;-0.518;2022-11-20T00:03:19;100193.41;;;9.22;59.85
46081;BME280;31821;51.880;-0.518;2022-11-20T00:05:45;100173.13;;;9.31;59.56
46081;BME280;31821;51.880;-0.518;2022-11-20T00:08:10;100193.81;;;9.43;59.41
46081;BME280;31821;51.880;-0.518;2022-11-20T00:10:37;100127.16;;;9.04;59.65
46081;BME280;31821;51.880;-0.518;2022-11-20T00:13:02;100142.44;;;9.24;58.07
46081;BME280;31821;51.880;-0.518;2022-11-20T00:15:28;100119.50;;;9.15;58.62
46081;BME280;31821;51.880;-0.518;2022-11-20T00:17:54;100074.91;;;9.04;58.59
46081;BME280;31821;51.880;-0.518;2022-11-20T00:20:19;100158.88;;;9.57;58.37
46081;BME280;31821;51.880;-0.518;2022-11-20T00:22:45;100201.09;;;9.53;58.90
46081;BME280;31821;51.880;-0.518;2022-11-20T00:25:10;100119.38;;;9.06;58.52
46081;BME280;31821;51.880;-0.518;2022-11-20T00:27:36;100191.34;;;9.13;58.53
46081;BME280;31821;51.880;-0.518;2022-11-20T00:30:03;100140.03;;;8.90;58.75
46081;BME280;31821;51.880;-0.518;2022-11-20T00:32:29;100120.91;;;8.84;58.49
46081;BME280;31821;51.880;-0.518;2022-11-20T00:34:55;100091.47;;;8.85;58.52
46081;BME280;31821;51.880;-0.518;2022-11-20T00:37:20;100115.72;;;8.97;57.85
46081;BME280;31821;51.880;-0.518;2022-11-20T00:39:46;100102.97;;;8.87;58.59
46081;BME280;31821;51.880;-0.518;2022-11-20T00:42:11;100085.75;;;8.81;58.02
46081;BME280;31821;51.880;-0.518;2022-11-20T00:44:36;100111.16;;;8.59;59.29
46081;BME280;31821;51.880;-0.518;2022-11-20T00:47:02;100058.25;;;8.67;58.34
46081;BME280;31821;51.880;-0.518;2022-11-20T00:49:27;100073.75;;;8.91;57.76
46081;BME280;31821;51.880;-0.518;2022-11-20T00:51:53;100070.06;;;8.82;58.54
46081;BME280;31821;51.880;-0.518;2022-11-20T00:54:19;100148.88;;;9.61;57.36
46081;BME280;31821;51.880;-0.518;2022-11-20T00:56:44;100094.16;;;9.18;56.45
46081;BME280;31821;51.880;-0.518;2022-11-20T00:59:10;100081.91;;;9.38;56.94
46081;BME280;31821;51.880;-0.518;2022-11-20T01:01:36;100123.88;;;9.72;56.44
46081;BME280;31821;51.880;-0.518;2022-11-20T01:04:02;100151.72;;;9.84;56.68
46081;BME280;31821;51.880;-0.518;2022-11-20T01:06:29;100150.50;;;9.90;56.49
46081;BME280;31821;51.880;-0.518;2022-11-20T01:08:57;100141.88;;;10.06;55.64
46081;BME280;31821;51.880;-0.518;2022-11-20T01:11:28;100149.97;;;9.88;56.33
46081;BME280;31821;51.880;-0.518;2022-11-20T01:13:56;100129.69;;;9.84;56.04
46081;BME280;31821;51.880;-0.518;2022-11-20T01:16:28;100089.34;;;9.66;55.73
46081;BME280;31821;51.880;-0.518;2022-11-20T01:18:57;100079.34;;;9.42;56.06
46081;BME280;31821;51.880;-0.518;2022-11-20T01:21:28;100107.47;;;9.81;55.71
46081;BME280;31821;51.880;-0.518;2022-11-20T01:23:54;100043.88;;;9.54;55.48
46081;BME280;31821;51.880;-0.518;2022-11-20T01:26:23;100132.44;;;9.84;55.66
46081;BME280;31821;51.880;-0.518;2022-11-20T01:28:49;100020.81;;;8.99;56.40
46081;BME280;31821;51.880;-0.518;2022-11-20T01:31:21;100103.09;;;9.66;56.60
46081;BME280;31821;51.880;-0.518;2022-11-20T01:33:49;100128.00;;;9.60;57.46
46081;BME280;31821;51.880;-0.518;2022-11-20T01:36:16;100126.00;;;9.89;56.18
46081;BME280;31821;51.880;-0.518;2022-11-20T01:38:42;100116.25;;;9.69;56.62
46081;BME280;31821;51.880;-0.518;2022-11-20T01:41:09;100101.16;;;10.17;55.91
46081;BME280;31821;51.880;-0.518;2022-11-20T01:43:34;100014.47;;;9.27;56.16
46081;BME280;31821;51.880;-0.518;2022-11-20T01:48:33;100020.81;;;9.13;57.38
46081;BME280;31821;51.880;-0.518;2022-11-20T01:51:00;100056.22;;;9.43;57.14
46081;BME280;31821;51.880;-0.518;2022-11-20T01:53:30;100010.78;;;9.31;56.15
46081;BME280;31821;51.880;-0.518;2022-11-20T01:55:59;100037.63;;;9.76;55.69
46081;BME280;31821;51.880;-0.518;2022-11-20T01:58:30;100031.44;;;9.93;55.44
46081;BME280;31821;51.880;-0.518;2022-11-20T02:00:57;100039.91;;;10.20;55.86
46081;BME280;31821;51.880;-0.518;2022-11-20T02:03:23;100059.72;;;10.45;54.04
46081;BME280;31821;51.880;-0.518;2022-11-20T02:06:12;100069.38;;;10.56;55.10
46081;BME280;31821;51.880;-0.518;2022-11-20T02:08:40;100051.34;;;10.36;54.76
46081;BME280;31821;51.880;-0.518;2022-11-20T02:11:06;99992.50;;;10.09;54.93
46081;BME280;31821;51.880;-0.518;2022-11-20T02:13:32;100049.06;;;10.06;55.60
46081;BME280;31821;51.880;-0.518;2022-11-20T02:18:43;100028.44;;;10.26;56.52
46081;BME280;31821;51.880;-0.518;2022-11-20T02:21:15;99996.94;;;10.19;56.27
46081;BME280;31821;51.880;-0.518;2022-11-20T02:26:30;100001.56;;;10.32;55.39
46081;BME280;31821;51.880;-0.518;2022-11-20T02:28:58;100048.44;;;10.55;55.74
46081;BME280;31821;51.880;-0.518;2022-11-20T02:31:24;99992.31;;;10.28;55.53
46081;BME280;31821;51.880;-0.518;2022-11-20T02:33:57;100047.94;;;10.53;55.41
46081;BME280;31821;51.880;-0.518;2022-11-20T02:36:24;100014.56;;;10.32;55.10
46081;BME280;31821;51.880;-0.518;2022-11-20T02:38:51;99979.28;;;10.20;56.02
46081;BME280;31821;51.880;-0.518;2022-11-20T02:41:17;99946.44;;;9.78;56.12
46081;BME280;31821;51.880;-0.518;2022-11-20T02:43:42;99985.03;;;9.27;57.91
46081;BME280;31821;51.880;-0.518;2022-11-20T02:46:08;99921.09;;;8.66;59.75
46081;BME280;31821;51.880;-0.518;2022-11-20T02:48:34;99965.69;;;8.49;60.40
46081;BME280;31821;51.880;-0.518;2022-11-20T02:50:59;99923.78;;;8.57;60.33
46081;BME280;31821;51.880;-0.518;2022-11-20T02:53:25;99927.72;;;8.65;60.43
46081;BME280;31821;51.880;-0.518;2022-11-20T02:55:50;99888.56;;;8.73;59.77
46081;BME280;31821;51.880;-0.518;2022-11-20T02:58:16;99905.53;;;8.75;61.09
46081;BME280;31821;51.880;-0.518;2022-11-20T03:00:41;99934.06;;;8.65;60.01
46081;BME280;31821;51.880;-0.518;2022-11-20T03:03:07;99965.91;;;8.94;60.90
46081;BME280;31821;51.880;-0.518;2022-11-20T03:05:32;99911.63;;;9.00;59.93
46081;BME280;31821;51.880;-0.518;2022-11-20T03:07:58;99832.47;;;8.74;60.26
46081;BME280;31821;51.880;-0.518;2022-11-20T03:10:24;99974.72;;;9.33;60.58
46081;BME280;31821;51.880;-0.518;2022-11-20T03:12:55;99864.44;;;8.56;60.95
46081;BME280;31821;51.880;-0.518;2022-11-20T03:15:22;99912.06;;;8.65;60.66
46081;BME280;31821;51.880;-0.518;2022-11-20T03:17:48;99889.25;;;8.65;60.82
46081;BME280;31821;51.880;-0.518;2022-11-20T03:20:13;99964.94;;;9.27;61.58
46081;BME280;31821;51.880;-0.518;2022-11-20T03:22:39;99908.38;;;8.84;61.06
46081;BME280;31821;51.880;-0.518;2022-11-20T03:25:04;99868.81;;;8.71;60.75
46081;BME280;31821;51.880;-0.518;2022-11-20T03:27:34;99921.72;;;8.77;61.76
46081;BME280;31821;51.880;-0.518;2022-11-20T03:29:59;99905.41;;;8.94;61.24
46081;BME280;31821;51.880;-0.518;2022-11-20T03:32:25;99934.69;;;9.27;60.77
46081;BME280;31821;51.880;-0.518;2022-11-20T03:34:50;99819.41;;;8.66;61.38
46081;BME280;31821;51.880;-0.518;2022-11-20T03:37:16;99855.41;;;8.92;60.60
46081;BME280;31821;51.880;-0.518;2022-11-20T03:39:41;99874.84;;;8.96;61.04
46081;BME280;31821;51.880;-0.518;2022-11-20T03:42:08;99820.53;;;8.65;61.78
46081;BME280;31821;51.880;-0.518;2022-11-20T03:44:53;99847.81;;;9.12;60.28
46081;BME280;31821;51.880;-0.518;2022-11-20T03:47:19;99895.03;;;9.28;60.28
46081;BME280;31821;51.880;-0.518;2022-11-20T03:49:45;99903.28;;;9.05;61.80
46081;BME280;31821;51.880;-0.518;2022-11-20T03:52:10;99879.59;;;9.18;61.82
46081;BME280;31821;51.880;-0.518;2022-11-20T03:54:35;99839.66;;;8.84;62.57
46081;BME280;31821;51.880;-0.518;2022-11-20T03:57:01;99901.78;;;9.58;61.67
46081;BME280;31821;51.880;-0.518;2022-11-20T03:59:26;99872.00;;;9.01;62.52
46081;BME280;31821;51.880;-0.518;2022-11-20T04:01:52;99867.53;;;9.05;63.18
46081;BME280;31821;51.880;-0.518;2022-11-20T04:04:17;99798.19;;;8.30;63.58
46081;BME280;31821;51.880;-0.518;2022-11-20T04:06:43;99823.38;;;8.74;63.97
46081;BME280;31821;51.880;-0.518;2022-11-20T04:09:08;99681.81;;;8.12;62.73
46081;BME280;31821;51.880;-0.518;2022-11-20T04:11:36;99826.22;;;9.19;62.95
46081;BME280;31821;51.880;-0.518;2022-11-20T04:14:06;99875.19;;;9.54;62.19
46081;BME280;31821;51.880;-0.518;2022-11-20T04:16:37;99848.50;;;8.81;63.83
46081;BME280;31821;51.880;-0.518;2022-11-20T04:19:04;99860.78;;;9.11;63.78
46081;BME280;31821;51.880;-0.518;2022-11-20T04:21:30;99793.19;;;8.60;64.45
46081;BME280;31821;51.880;-0.518;2022-11-20T04:23:56;99862.44;;;8.98;64.92
46081;BME280;31821;51.880;-0.518;2022-11-20T04:26:25;99777.97;;;8.76;63.70
46081;BME280;31821;51.880;-0.518;2022-11-20T04:28:51;99864.47;;;9.52;63.24
46081;BME280;31821;51.880;-0.518;2022-11-20T04:31:22;99853.09;;;9.22;64.21
46081;BME280;31821;51.880;-0.518;2022-11-20T04:33:48;99795.69;;;9.07;64.07
46081;BME280;31821;51.880;-0.518;2022-11-20T04:36:26;99849.63;;;9.16;64.71
46081;BME280;31821;51.880;-0.518;2022-11-20T04:38:53;99806.78;;;8.79;66.88
46081;BME280;31821;51.880;-0.518;2022-11-20T04:41:21;99862.22;;;9.09;66.16
46081;BME280;31821;51.880;-0.518;2022-11-20T04:43:48;99824.84;;;9.08;66.39
46081;BME280;31821;51.880;-0.518;2022-11-20T04:46:14;99795.16;;;8.82;66.84
46081;BME280;31821;51.880;-0.518;2022-11-20T04:48:40;99828.56;;;9.12;66.61
46081;BME280;31821;51.880;-0.518;2022-11-20T04:51:06;99830.63;;;8.69;68.22
46081;BME280;31821;51.880;-0.518;2022-11-20T04:53:31;99806.81;;;8.51;67.67
46081;BME280;31821;51.880;-0.518;2022-11-20T04:56:01;99792.88;;;8.98;67.08
46081;BME280;31821;51.880;-0.518;2022-11-20T04:58:27;99834.66;;;8.86;68.17
46081;BME280;31821;51.880;-0.518;2022-11-20T05:00:53;99818.34;;;8.90;67.64
46081;BME280;31821;51.880;-0.518;2022-11-20T05:03:18;99737.28;;;8.64;67.90
46081;BME280;31821;51.880;-0.518;2022-11-20T05:05:44;99742.50;;;8.89;66.41
46081;BME280;31821;51.880;-0.518;2022-11-20T05:08:09;99769.56;;;9.41;66.99
46081;BME280;31821;51.880;-0.518;2022-11-20T05:10:35;99751.50;;;8.80;67.67
46081;BME280;31821;51.880;-0.518;2022-11-20T05:13:00;99775.56;;;8.61;68.68
46081;BME280;31821;51.880;-0.518;2022-11-20T05:15:25;99779.25;;;8.93;68.75
46081;BME280;31821;51.880;-0.518;2022-11-20T05:17:52;99745.03;;;8.62;68.14
46081;BME280;31821;51.880;-0.518;2022-11-20T05:20:18;99757.94;;;8.98;68.43
46081;BME280;31821;51.880;-0.518;2022-11-20T05:22:44;99791.09;;;9.39;67.20
46081;BME280;31821;51.880;-0.518;2022-11-20T05:25:10;99776.81;;;9.37;67.98
46081;BME280;31821;51.880;-0.518;2022-11-20T05:27:36;99698.69;;;8.92;67.84
46081;BME280;31821;51.880;-0.518;2022-11-20T05:30:03;99750.31;;;9.41;67.38
46081;BME280;31821;51.880;-0.518;2022-11-20T05:32:29;99739.25;;;9.09;68.49
46081;BME280;31821;51.880;-0.518;2022-11-20T05:34:54;99649.09;;;8.01;69.80
46081;BME280;31821;51.880;-0.518;2022-11-20T05:37:20;99746.63;;;9.00;68.62
46081;BME280;31821;51.880;-0.518;2022-11-20T05:39:45;99697.06;;;8.32;70.29
46081;BME280;31821;51.880;-0.518;2022-11-20T05:42:11;99725.38;;;8.69;69.87
46081;BME280;31821;51.880;-0.518;2022-11-20T05:44:54;99745.50;;;9.01;69.07
46081;BME280;31821;51.880;-0.518;2022-11-20T05:47:20;99753.34;;;9.39;67.87
46081;BME280;31821;51.880;-0.518;2022-11-20T05:49:45;99726.34;;;9.41;66.92
46081;BME280;31821;51.880;-0.518;2022-11-20T05:52:11;99703.84;;;9.39;66.54
46081;BME280;31821;51.880;-0.518;2022-11-20T05:54:36;99742.53;;;9.74;66.25
46081;BME280;31821;51.880;-0.518;2022-11-20T05:57:02;99767.63;;;10.13;66.66
46081;BME280;31821;51.880;-0.518;2022-11-20T05:59:28;99792.13;;;10.23;64.91
46081;BME280;31821;51.880;-0.518;2022-11-20T06:01:53;99734.38;;;10.09;65.60
46081;BME280;31821;51.880;-0.518;2022-11-20T06:04:19;99711.69;;;9.95;65.18
46081;BME280;31821;51.880;-0.518;2022-11-20T06:06:44;99732.94;;;10.03;64.57
46081;BME280;31821;51.880;-0.518;2022-11-20T06:09:10;99729.03;;;10.13;65.10
46081;BME280;31821;51.880;-0.518;2022-11-20T06:11:35;99680.44;;;10.00;64.18
46081;BME280;31821;51.880;-0.518;2022-11-20T06:14:01;99745.38;;;10.59;64.40
46081;BME280;31821;51.880;-0.518;2022-11-20T06:16:26;99746.34;;;10.54;64.49
46081;BME280;31821;51.880;-0.518;2022-11-20T06:18:52;99694.22;;;10.17;64.52
46081;BME280;31821;51.880;-0.518;2022-11-20T06:21:21;99736.94;;;10.64;64.19
46081;BME280;31821;51.880;-0.518;2022-11-20T06:23:49;99727.72;;;10.60;63.31
46081;BME280;31821;51.880;-0.518;2022-11-20T06:26:17;99767.13;;;10.78;64.62
46081;BME280;31821;51.880;-0.518;2022-11-20T06:28:43;99686.13;;;10.21;64.36
46081;BME280;31821;51.880;-0.518;2022-11-20T06:31:11;99755.25;;;10.68;65.12
46081;BME280;31821;51.880;-0.518;2022-11-20T06:33:37;99743.44;;;10.77;64.92
46081;BME280;31821;51.880;-0.518;2022-11-20T06:36:03;99714.88;;;10.72;63.61
46081;BME280;31821;51.880;-0.518;2022-11-20T06:38:29;99766.81;;;10.88;64.53
46081;BME280;31821;51.880;-0.518;2022-11-20T06:40:55;99676.13;;;10.43;64.55
46081;BME280;31821;51.880;-0.518;2022-11-20T06:43:22;99722.53;;;10.76;63.75
46081;BME280;31821;51.880;-0.518;2022-11-20T06:45:54;99733.22;;;10.68;64.90
46081;BME280;31821;51.880;-0.518;2022-11-20T06:48:21;99686.34;;;10.42;65.21
46081;BME280;31821;51.880;-0.518;2022-11-20T06:50:46;99718.75;;;10.45;65.15
46081;BME280;31821;51.880;-0.518;2022-11-20T06:53:12;99716.28;;;10.35;65.85
46081;BME280;31821;51.880;-0.518;2022-11-20T06:55:42;99736.94;;;10.46;65.93
46081;BME280;31821;51.880;-0.518;2022-11-20T06:58:09;99682.56;;;10.20;65.03
46081;BME280;31821;51.880;-0.518;2022-11-20T07:00:34;99716.28;;;10.35;65.10
46081;BME280;31821;51.880;-0.518;2022-11-20T07:03:03;99667.97;;;10.20;65.73
46081;BME280;31821;51.880;-0.518;2022-11-20T07:05:29;99683.72;;;10.37;65.69
46081;BME280;31821;51.880;-0.518;2022-11-20T07:07:56;99652.75;;;10.31;65.24
46081;BME280;31821;51.880;-0.518;2022-11-20T07:10:21;99694.78;;;10.72;65.15
46081;BME280;31821;51.880;-0.518;2022-11-20T07:12:50;99688.47;;;10.63;64.59
46081;BME280;31821;51.880;-0.518;2022-11-20T07:15:17;99736.78;;;10.95;65.39
46081;BME280;31821;51.880;-0.518;2022-11-20T07:17:42;99726.91;;;10.77;65.45
46081;BME280;31821;51.880;-0.518;2022-11-20T07:20:08;99639.81;;;10.32;65.90
46081;BME280;31821;51.880;-0.518;2022-11-20T07:22:34;99669.44;;;10.35;66.06
46081;BME280;31821;51.880;-0.518;2022-11-20T07:25:00;99644.06;;;10.47;64.67
46081;BME280;31821;51.880;-0.518;2022-11-20T07:27:25;99637.72;;;10.37;65.39
46081;BME280;31821;51.880;-0.518;2022-11-20T07:29:51;99721.38;;;10.94;65.15
46081;BME280;31821;51.880;-0.518;2022-11-20T07:32:16;99716.84;;;10.81;65.64
46081;BME280;31821;51.880;-0.518;2022-11-20T07:34:42;99739.84;;;11.11;65.15
46081;BME280;31821;51.880;-0.518;2022-11-20T07:37:08;99719.44;;;10.60;65.66
46081;BME280;31821;51.880;-0.518;2022-11-20T07:39:33;99700.78;;;10.74;64.45
46081;BME280;31821;51.880;-0.518;2022-11-20T07:41:59;99638.81;;;10.28;64.95
46081;BME280;31821;51.880;-0.518;2022-11-20T07:44:24;99680.69;;;10.47;64.08
46081;BME280;31821;51.880;-0.518;2022-11-20T07:46:49;99667.63;;;10.04;65.58
46081;BME280;31821;51.880;-0.518;2022-11-20T07:49:15;99699.41;;;10.19;65.69
46081;BME280;31821;51.880;-0.518;2022-11-20T07:51:40;99690.00;;;10.11;65.11
46081;BME280;31821;51.880;-0.518;2022-11-20T07:54:06;99754.28;;;10.47;66.27
46081;BME280;31821;51.880;-0.518;2022-11-20T07:56:31;99746.44;;;10.31;65.57
46081;BME280;31821;51.880;-0.518;2022-11-20T07:58:57;99764.00;;;10.44;65.70
46081;BME280;31821;51.880;-0.518;2022-11-20T08:01:22;99651.66;;;9.66;65.26
46081;BME280;31821;51.880;-0.518;2022-11-20T08:03:48;99647.44;;;9.68;66.26
46081;BME280;31821;51.880;-0.518;2022-11-20T08:06:13;99730.19;;;10.12;65.39
46081;BME280;31821;51.880;-0.518;2022-11-20T08:08:40;99675.34;;;9.35;66.49
46081;BME280;31821;51.880;-0.518;2022-11-20T08:11:05;99728.59;;;10.29;65.28
46081;BME280;31821;51.880;-0.518;2022-11-20T08:13:49;99758.41;;;10.26;66.08
46081;BME280;31821;51.880;-0.518;2022-11-20T08:16:33;99715.56;;;10.03;65.15
46081;BME280;31821;51.880;-0.518;2022-11-20T08:18:59;99750.06;;;10.49;64.71
46081;BME280;31821;51.880;-0.518;2022-11-20T08:21:24;99599.66;;;9.55;65.18
46081;BME280;31821;51.880;-0.518;2022-11-20T08:23:50;99789.69;;;10.88;64.68
46081;BME280;31821;51.880;-0.518;2022-11-20T08:26:16;99755.28;;;10.77;63.34
46081;BME280;31821;51.880;-0.518;2022-11-20T08:28:41;99789.50;;;11.38;62.50
46081;BME280;31821;51.880;-0.518;2022-11-20T08:31:07;99778.13;;;11.39;62.23
46081;BME280;31821;51.880;-0.518;2022-11-20T08:33:32;99733.59;;;11.58;61.97
46081;BME280;31821;51.880;-0.518;2022-11-20T08:36:00;99753.72;;;11.59;60.91
46081;BME280;31821;51.880;-0.518;2022-11-20T08:38:26;99722.09;;;12.25;61.12
46081;BME280;31821;51.880;-0.518;2022-11-20T08:40:51;99693.72;;;12.79;57.49
46081;BME280;31821;51.880;-0.518;2022-11-20T08:43:35;99774.84;;;13.59;56.41
46081;BME280;31821;51.880;-0.518;2022-11-20T08:46:01;99744.38;;;13.26;55.91
46081;BME280;31821;51.880;-0.518;2022-11-20T08:48:26;99693.63;;;13.22;55.50
46081;BME280;31821;51.880;-0.518;2022-11-20T08:50:52;99696.03;;;13.57;54.91
46081;BME280;31821;51.880;-0.518;2022-11-20T08:53:17;99709.78;;;13.90;54.91
46081;BME280;31821;51.880;-0.518;2022-11-20T08:55:43;99755.69;;;13.54;54.86
46081;BME280;31821;51.880;-0.518;2022-11-20T08:58:08;99745.69;;;13.99;54.88
46081;BME280;31821;51.880;-0.518;2022-11-20T09:00:34;99733.44;;;13.75;53.08
46081;BME280;31821;51.880;-0.518;2022-11-20T09:03:00;99732.91;;;14.07;53.17
46081;BME280;31821;51.880;-0.518;2022-11-20T09:05:26;99665.44;;;13.90;52.13
46081;BME280;31821;51.880;-0.518;2022-11-20T09:07:52;99738.16;;;13.29;53.62
46081;BME280;31821;51.880;-0.518;2022-11-20T09:10:17;99753.13;;;13.49;54.03
46081;BME280;31821;51.880;-0.518;2022-11-20T09:12:43;99730.66;;;12.96;55.47
46081;BME280;31821;51.880;-0.518;2022-11-20T09:15:08;99756.06;;;12.77;56.14
46081;BME280;31821;51.880;-0.518;2022-11-20T09:17:34;99752.06;;;12.86;55.64
46081;BME280;31821;51.880;-0.518;2022-11-20T09:19:59;99721.44;;;12.92;56.62
46081;BME280;31821;51.880;-0.518;2022-11-20T09:22:25;99760.19;;;13.25;54.13
46081;BME280;31821;51.880;-0.518;2022-11-20T09:24:50;99725.63;;;14.02;51.90
46081;BME280;31821;51.880;-0.518;2022-11-20T09:27:16;99720.50;;;14.41;50.98
46081;BME280;31821;51.880;-0.518;2022-11-20T09:29:47;99748.69;;;14.97;50.10
46081;BME280;31821;51.880;-0.518;2022-11-20T09:32:13;99686.53;;;15.30;46.94
46081;BME280;31821;51.880;-0.518;2022-11-20T09:34:38;99685.66;;;15.58;48.57
46081;BME280;31821;51.880;-0.518;2022-11-20T09:37:04;99705.03;;;16.02;46.74
46081;BME280;31821;51.880;-0.518;2022-11-20T09:39:29;99717.34;;;16.37;46.23
46081;BME280;31821;51.880;-0.518;2022-11-20T09:42:16;99767.38;;;17.70;45.42
46081;BME280;31821;51.880;-0.518;2022-11-20T09:47:52;99772.00;;;18.06;41.88
46081;BME280;31821;51.880;-0.518;2022-11-20T09:53:23;99704.28;;;18.62;40.90
46081;BME280;31821;51.880;-0.518;2022-11-20T09:55:54;99734.16;;;18.62;40.29
46081;BME280;31821;51.880;-0.518;2022-11-20T09:58:25;99722.59;;;18.33;41.16
46081;BME280;31821;51.880;-0.518;2022-11-20T10:00:57;99759.06;;;17.51;42.88
46081;BME280;31821;51.880;-0.518;2022-11-20T10:06:13;99651.84;;;18.18;41.07
46081;BME280;31821;51.880;-0.518;2022-11-20T10:22:57;99729.34;;;18.59;40.78
46081;BME280;31821;51.880;-0.518;2022-11-20T10:25:37;99748.03;;;19.16;40.43
46081;BME280;31821;51.880;-0.518;2022-11-20T10:31:17;99734.81;;;19.92;38.91
46081;BME280;31821;51.880;-0.518;2022-11-20T10:33:50;99718.34;;;20.31;37.72
46081;BME280;31821;51.880;-0.518;2022-11-20T10:36:22;99735.41;;;20.12;37.16
46081;BME280;31821;51.880;-0.518;2022-11-20T10:42:00;99693.44;;;20.12;37.17
46081;BME280;31821;51.880;-0.518;2022-11-20T10:44:28;99737.88;;;20.24;36.42
46081;BME280;31821;51.880;-0.518;2022-11-20T10:47:16;99714.06;;;20.56;36.88
46081;BME280;31821;51.880;-0.518;2022-11-20T10:49:48;99686.34;;;20.32;36.94
46081;BME280;31821;51.880;-0.518;2022-11-20T10:57:48;99732.31;;;21.02;35.08
46081;BME280;31821;51.880;-0.518;2022-11-20T11:00:17;99713.13;;;21.00;35.38
46081;BME280;31821;51.880;-0.518;2022-11-20T11:02:49;99646.16;;;19.47;36.92
46081;BME280;31821;51.880;-0.518;2022-11-20T11:07:50;99589.09;;;20.15;34.73
46081;BME280;31821;51.880;-0.518;2022-11-20T11:10:23;99601.22;;;19.22;36.91
46081;BME280;31821;51.880;-0.518;2022-11-20T11:12:49;99695.03;;;20.13;36.40
46081;BME280;31821;51.880;-0.518;2022-11-20T11:15:26;99711.31;;;20.63;35.86
46081;BME280;31821;51.880;-0.518;2022-11-20T11:17:52;99720.56;;;20.08;36.54
46081;BME280;31821;51.880;-0.518;2022-11-20T11:20:20;99707.75;;;20.07;36.13
46081;BME280;31821;51.880;-0.518;2022-11-20T11:22:53;99724.53;;;19.58;37.31
46081;BME280;31821;51.880;-0.518;2022-11-20T11:25:36;99736.25;;;18.69;39.91
46081;BME280;31821;51.880;-0.518;2022-11-20T11:28:21;99742.50;;;18.89;39.54
46081;BME280;31821;51.880;-0.518;2022-11-20T11:30:47;99737.25;;;18.53;40.27
46081;BME280;31821;51.880;-0.518;2022-11-20T11:33:34;99646.97;;;18.42;39.44
46081;BME280;31821;51.880;-0.518;2022-11-20T11:36:02;99714.97;;;19.21;37.95
46081;BME280;31821;51.880;-0.518;2022-11-20T11:38:32;99735.16;;;19.42;36.34
46081;BME280;31821;51.880;-0.518;2022-11-20T11:40:59;99680.25;;;19.67;35.55
46081;BME280;31821;51.880;-0.518;2022-11-20T11:43:29;99718.69;;;19.74;34.97
46081;BME280;31821;51.880;-0.518;2022-11-20T11:54:38;99712.41;;;19.43;34.76
46081;BME280;31821;51.880;-0.518;2022-11-20T11:57:29;99717.06;;;19.73;34.85
46081;BME280;31821;51.880;-0.518;2022-11-20T12:00:06;99668.97;;;19.12;35.31
46081;BME280;31821;51.880;-0.518;2022-11-20T12:05:20;99715.88;;;19.33;34.54
46081;BME280;31821;51.880;-0.518;2022-11-20T12:07:57;99699.47;;;18.33;36.16
46081;BME280;31821;51.880;-0.518;2022-11-20T12:10:46;99751.59;;;18.52;37.08
46081;BME280;31821;51.880;-0.518;2022-11-20T12:15:46;99714.81;;;17.69;37.33
46081;BME280;31821;51.880;-0.518;2022-11-20T12:18:18;99752.34;;;17.98;37.19
46081;BME280;31821;51.880;-0.518;2022-11-20T12:21:19;99756.59;;;18.15;36.38
46081;BME280;31821;51.880;-0.518;2022-11-20T12:26:56;99741.50;;;17.93;37.63
46081;BME280;31821;51.880;-0.518;2022-11-20T12:34:46;99726.09;;;16.03;40.27
46081;BME280;31821;51.880;-0.518;2022-11-20T12:37:17;99765.72;;;16.68;40.01
46081;BME280;31821;51.880;-0.518;2022-11-20T12:39:49;99749.00;;;17.03;39.63
46081;BME280;31821;51.880;-0.518;2022-11-20T12:42:41;99733.94;;;17.47;37.56
46081;BME280;31821;51.880;-0.518;2022-11-20T12:46:03;99765.66;;;17.19;38.57
46081;BME280;31821;51.880;-0.518;2022-11-20T12:54:54;99752.97;;;16.31;39.33
46081;BME280;31821;51.880;-0.518;2022-11-20T13:00:23;99774.16;;;15.43;40.26
46081;BME280;31821;51.880;-0.518;2022-11-20T13:03:16;99798.59;;;15.66;41.67
46081;BME280;31821;51.880;-0.518;2022-11-20T13:06:02;99771.94;;;15.49;40.94
46081;BME280;31821;51.880;-0.518;2022-11-20T13:08:36;99749.88;;;15.24;41.11
46081;BME280;31821;51.880;-0.518;2022-11-20T13:19:24;99776.16;;;15.43;41.63
46081;BME280;31821;51.880;-0.518;2022-11-20T13:21:50;99729.81;;;15.02;42.29
46081;BME280;31821;51.880;-0.518;2022-11-20T13:26:44;99708.47;;;14.90;42.63
46081;BME280;31821;51.880;-0.518;2022-11-20T13:29:17;99746.91;;;14.51;42.01
46081;BME280;31821;51.880;-0.518;2022-11-20T13:31:45;99770.03;;;14.80;43.02
46081;BME280;31821;51.880;-0.518;2022-11-20T13:34:23;99729.88;;;14.24;43.61
46081;BME280;31821;51.880;-0.518;2022-11-20T13:36:51;99698.94;;;13.85;44.08
46081;BME280;31821;51.880;-0.518;2022-11-20T13:39:32;99711.41;;;13.91;43.26
46081;BME280;31821;51.880;-0.518;2022-11-20T13:42:03;99731.75;;;14.08;43.45
46081;BME280;31821;51.880;-0.518;2022-11-20T13:44:50;99767.19;;;14.02;44.88
46081;BME280;31821;51.880;-0.518;2022-11-20T13:47:24;99740.69;;;14.67;43.25
46081;BME280;31821;51.880;-0.518;2022-11-20T13:49:55;99743.81;;;15.06;43.24
46081;BME280;31821;51.880;-0.518;2022-11-20T13:52:50;99736.00;;;15.40;41.46
46081;BME280;31821;51.880;-0.518;2022-11-20T13:55:35;99723.06;;;15.32;42.62
46081;BME280;31821;51.880;-0.518;2022-11-20T14:00:31;99656.13;;;14.77;41.62
46081;BME280;31821;51.880;-0.518;2022-11-20T14:05:36;99733.25;;;15.56;41.88
46081;BME280;31821;51.880;-0.518;2022-11-20T14:08:12;99659.81;;;15.09;41.86
46081;BME280;31821;51.880;-0.518;2022-11-20T14:10:39;99655.19;;;14.85;42.45
46081;BME280;31821;51.880;-0.518;2022-11-20T14:13:16;99701.88;;;15.11;43.00
46081;BME280;31821;51.880;-0.518;2022-11-20T14:15:43;99704.69;;;15.27;42.73
46081;BME280;31821;51.880;-0.518;2022-11-20T14:18:14;99742.84;;;15.59;42.34
46081;BME280;31821;51.880;-0.518;2022-11-20T14:20:41;99699.34;;;15.34;42.27
46081;BME280;31821;51.880;-0.518;2022-11-20T14:23:09;99718.81;;;15.50;42.50
46081;BME280;31821;51.880;-0.518;2022-11-20T14:25:36;99760.22;;;15.56;43.17
46081;BME280;31821;51.880;-0.518;2022-11-20T14:28:03;99725.28;;;15.26;43.73
46081;BME280;31821;51.880;-0.518;2022-11-20T14:30:38;99685.72;;;14.85;44.46
46081;BME280;31821;51.880;-0.518;2022-11-20T14:33:10;99759.50;;;15.14;45.12